Map

Track Data

SID SEASON NUMBER BASIN SUBBASIN NAME ISO_TIME NATURE LAT LON WMO_WIND WMO_PRES WMO_AGENCY TRACK_TYPE DIST2LAND LANDFALL IFLAG USA_AGENCY USA_ATCF_ID USA_LAT USA_LON USA_RECORD USA_STATUS USA_WIND USA_PRES USA_SSHS USA_R34_NE USA_R34_SE USA_R34_SW USA_R34_NW USA_R50_NE USA_R50_SE USA_R50_SW USA_R50_NW USA_R64_NE USA_R64_SE USA_R64_SW USA_R64_NW USA_POCI USA_ROCI USA_RMW USA_EYE TOKYO_LAT TOKYO_LON TOKYO_GRADE TOKYO_WIND TOKYO_PRES TOKYO_R50_DIR TOKYO_R50_LONG TOKYO_R50_SHORT TOKYO_R30_DIR TOKYO_R30_LONG TOKYO_R30_SHORT TOKYO_LAND CMA_LAT CMA_LON CMA_CAT CMA_WIND CMA_PRES HKO_LAT HKO_LON HKO_CAT HKO_WIND HKO_PRES NEWDELHI_LAT NEWDELHI_LON NEWDELHI_GRADE NEWDELHI_WIND NEWDELHI_PRES NEWDELHI_CI NEWDELHI_DP NEWDELHI_POCI REUNION_LAT REUNION_LON REUNION_TYPE REUNION_WIND REUNION_PRES REUNION_TNUM REUNION_CI REUNION_RMW REUNION_R34_NE REUNION_R34_SE REUNION_R34_SW REUNION_R34_NW REUNION_R50_NE REUNION_R50_SE REUNION_R50_SW REUNION_R50_NW REUNION_R64_NE REUNION_R64_SE REUNION_R64_SW REUNION_R64_NW BOM_LAT BOM_LON BOM_TYPE BOM_WIND BOM_PRES BOM_TNUM BOM_CI BOM_RMW BOM_R34_NE BOM_R34_SE BOM_R34_SW BOM_R34_NW BOM_R50_NE BOM_R50_SE BOM_R50_SW BOM_R50_NW BOM_R64_NE BOM_R64_SE BOM_R64_SW BOM_R64_NW BOM_ROCI BOM_POCI BOM_EYE BOM_POS_METHOD BOM_PRES_METHOD NADI_LAT NADI_LON NADI_CAT NADI_WIND NADI_PRES WELLINGTON_LAT WELLINGTON_LON WELLINGTON_WIND WELLINGTON_PRES DS824_LAT DS824_LON DS824_STAGE DS824_WIND DS824_PRES TD9636_LAT TD9636_LON TD9636_STAGE TD9636_WIND TD9636_PRES TD9635_LAT TD9635_LON TD9635_WIND TD9635_PRES TD9635_ROCI NEUMANN_LAT NEUMANN_LON NEUMANN_CLASS NEUMANN_WIND NEUMANN_PRES MLC_LAT MLC_LON MLC_CLASS MLC_WIND MLC_PRES USA_GUST BOM_GUST BOM_GUST_PER REUNION_GUST REUNION_GUST_PER USA_SEAHGT USA_SEARAD_NE USA_SEARAD_SE USA_SEARAD_SW USA_SEARAD_NW STORM_SPEED STORM_DIR
1848061S12075 1848 6 SI MM NOT_NAMED 1848-02-29 18:00:00 NR -11.5000 75.0000 main 2045 2045 __________O___ -1 -11.5000 75.0000 7 1 60
1848061S12075 1848 6 SI MM NOT_NAMED 1848-02-29 21:00:00 NR -11.4804 75.0488 main 2045 2042 __________P___ -1 -11.5410 74.8330 7 0 0
1848061S12075 1848 6 SI MM NOT_NAMED 1848-03-01 00:00:00 NR -11.4888 74.9881 main 2045 2045 __________P___ -1 -11.5856 74.6429 7 3 258
1848061S12075 1848 6 SI MM NOT_NAMED 1848-03-01 03:00:00 NR -11.5530 74.7086 main 2050 2050 __________P___ -1 -11.6374 74.4063 7 2 252
1848061S12075 1848 6 SI MM NOT_NAMED 1848-03-01 06:00:00 NR -11.5500 74.8000 reunion main 2052 2015 _____O____O___ -1 -11.4000 75.5000 99 9.90000 -11.7000 74.1000 7 9 77
1848061S12075 1848 6 SI MM NOT_NAMED 1848-03-01 09:00:00 NR -11.3581 75.5885 main 2015 2002 _____P________ -1 -11.3581 75.5885 99 7 9 75
1848061S12075 1848 6 SI MM NOT_NAMED 1848-03-01 12:00:00 NR -11.3239 75.6507 main 2002 2002 _____P________ -1 -11.3239 75.6507 99 7 1 53
1848061S12075 1848 6 SI MM NOT_NAMED 1848-03-01 15:00:00 NR -11.3048 75.6603 main 2002 2002 _____P________ -1 -11.3048 75.6603 99 7 1 286
1848061S12075 1848 6 SI MM NOT_NAMED 1848-03-01 18:00:00 NR -11.3086 75.5914 main 2005 2005 _____P________ -1 -11.3086 75.5914 99 7 2 261
1848061S12075 1848 6 SI MM NOT_NAMED 1848-03-01 21:00:00 NR -11.3428 75.4175 main 2011 2011 _____P________ -1 -11.3428 75.4175 99 7 5 257
1848061S12075 1848 6 SI MM NOT_NAMED 1848-03-02 00:00:00 NR -11.4146 75.1122 main 2031 2031 _____P________ -1 -11.4146 75.1122 99 7 8 256
1848061S12075 1848 6 SI MM NOT_NAMED 1848-03-02 03:00:00 NR -11.5314 74.6488 main 2046 1978 _____P________ -1 -11.5314 74.6488 99 7 11 255
1848061S12075 1848 6 SI MM NOT_NAMED 1848-03-02 06:00:00 NR -11.7000 74.0000 reunion main 1978 1892 _____O________ -1 -11.7000 74.0000 99 9.90000 7 15 255
1848061S12075 1848 6 SI MM NOT_NAMED 1848-03-02 09:00:00 NR -11.9242 73.1492 main 1883 1782 _____P________ -1 -11.9242 73.1492 99 7 19 255
1848061S12075 1848 6 SI MM NOT_NAMED 1848-03-02 12:00:00 NR -12.1975 72.1248 main 1772 1653 _____P________ -1 -12.1975 72.1248 99 7 22 255
1848061S12075 1848 6 SI MM NOT_NAMED 1848-03-02 15:00:00 NR -12.5110 70.9667 main 1653 1526 _____P________ -1 -12.5110 70.9667 99 7 24 254
1848061S12075 1848 6 SI MM NOT_NAMED 1848-03-02 18:00:00 NR -12.8561 69.7155 main 1511 1385 _____P________ -1 -12.8561 69.7155 99 7 26 254
1848061S12075 1848 6 SI MM NOT_NAMED 1848-03-02 21:00:00 NR -13.2245 68.4121 main 1376 1245 _____P________ -1 -13.2245 68.4121 99 7 27 254
1848061S12075 1848 6 SI MM NOT_NAMED 1848-03-03 00:00:00 NR -13.6088 67.0976 main 1236 1106 _____P________ -1 -13.6088 67.0976 99 7 26 253
1848061S12075 1848 6 SI MM NOT_NAMED 1848-03-03 03:00:00 NR -14.0025 65.8132 main 1098 979 _____P________ -1 -14.0025 65.8132 99 7 26 252
1848061S12075 1848 6 SI MM NOT_NAMED 1848-03-03 06:00:00 NR -14.4000 64.6000 reunion main 971 869 _____O________ -1 -14.4000 64.6000 99 9.90000 7 24 253
1848061S12075 1848 6 SI MM NOT_NAMED 1848-03-03 09:00:00 NR -14.7047 63.5016 main 862 764 _____P________ -1 -14.7047 63.5016 99 7 22 254
1848061S12075 1848 6 SI MM NOT_NAMED 1848-03-03 12:00:00 NR -15.0127 62.4404 main 757 671 _____P________ -1 -15.0127 62.4404 99 7 21 252
1848061S12075 1848 6 SI MM NOT_NAMED 1848-03-03 15:00:00 NR -15.3359 61.4296 main 664 574 _____P________ -1 -15.3359 61.4296 99 7 20 250
1848061S12075 1848 6 SI MM NOT_NAMED 1848-03-03 18:00:00 NR -15.6860 60.4825 main 574 505 _____P________ -1 -15.6860 60.4825 99 7 19 247
1848061S12075 1848 6 SI MM NOT_NAMED 1848-03-03 21:00:00 NR -16.0752 59.6125 main 490 381 _____P________ -1 -16.0752 59.6125 99 7 23 238
1848061S12075 1848 6 SI MM NOT_NAMED 1848-03-04 00:00:00 NR -16.8925 58.4976 main 367 291 _____P________ -1 -16.5156 58.8330 99 7 23 231
1848061S12075 1848 6 SI MM NOT_NAMED 1848-03-04 03:00:00 NR -17.5215 57.7654 main 291 224 _____P________ -1 -17.0198 58.1575 99 7 17 224
1848061S12075 1848 6 SI MM NOT_NAMED 1848-03-04 06:00:00 NR -18.1143 57.2571 reunion main 224 162 _____O____O___ -1 -17.6000 57.6000 99 9.90000 -18.8000 56.8000 7 16 215
1848061S12075 1848 6 SI MM NOT_NAMED 1848-03-04 09:00:00 NR -18.8117 56.8212 main 162 122 _____P____P___ -1 -18.3183 57.1054 99 -19.4268 56.4653 7 16 207
1848061S12075 1848 6 SI MM NOT_NAMED 1848-03-04 12:00:00 NR -19.5419 56.5009 main 124 100 _____P____P___ -1 -19.1209 56.7248 99 -20.0898 56.2018 7 16 199
1848061S12075 1848 6 SI MM NOT_NAMED 1848-03-04 15:00:00 NR -20.3504 56.2650 main 91 31 _____P____P___ -1 -19.9865 56.4517 99 -20.7829 56.0372 7 17 192
1848061S12075 1848 6 SI MM NOT_NAMED 1848-03-04 18:00:00 NR -21.1968 56.1402 main 31 31 _____P____O___ -1 -20.8936 56.2803 99 -21.5000 56.0000 7 17 184
1848061S12075 1848 6 SI MM NOT_NAMED 1848-03-04 21:00:00 NR -22.0463 56.1455 main 84 84 _____P____P___ -1 -21.8205 56.2049 99 -22.2351 56.1084 7 17 176
1848061S12075 1848 6 SI MM NOT_NAMED 1848-03-05 00:00:00 NR -22.8654 56.2590 main 182 182 _____P____P___ -1 -22.7454 56.2201 99 -22.9834 56.3364 7 17 171
1848061S12075 1848 6 SI MM NOT_NAMED 1848-03-05 03:00:00 NR -23.6860 56.4237 main 269 269 _____P____P___ -1 -23.6459 56.3203 99 -23.7400 56.6464 7 17 169
1848061S12075 1848 6 SI MM NOT_NAMED 1848-03-05 06:00:00 NR -24.5000 56.6000 reunion main 361 361 _____O____O___ -1 -24.5000 56.5000 99 9.90000 -24.5000 57.0000 7 16 174
1848061S12075 1848 6 SI MM NOT_NAMED 1848-03-05 09:00:00 NR -25.2187 56.6062 main 436 436 _____P________ -1 -25.2187 56.6062 99 7 14 173
1848061S12075 1848 6 SI MM NOT_NAMED 1848-03-05 12:00:00 NR -25.8996 56.7954 main 517 517 _____P________ -1 -25.8996 56.7954 99 7 14 163
1848061S12075 1848 6 SI MM NOT_NAMED 1848-03-05 15:00:00 NR -26.5500 57.0714 main 600 600 _____P________ -1 -26.5500 57.0714 99 7 14 156
1848061S12075 1848 6 SI MM NOT_NAMED 1848-03-05 18:00:00 NR -27.1775 57.4382 main 673 673 _____P________ -1 -27.1775 57.4382 99 14 149
1848061S12075 1848 6 SI MM NOT_NAMED 1848-03-05 21:00:00 NR -27.7894 57.8997 main 751 751 _____P________ -1 -27.7894 57.8997 99 15 143
1848061S12075 1848 6 SI MM NOT_NAMED 1848-03-06 00:00:00 NR -28.3926 58.4606 main 834 834 _____P________ -1 -28.3926 58.4606 99 16 138
1848061S12075 1848 6 SI MM NOT_NAMED 1848-03-06 03:00:00 NR -28.9940 59.1256 main 918 918 _____P________ -1 -28.9940 59.1256 99 17 134
1848061S12075 1848 6 SI MM NOT_NAMED 1848-03-06 06:00:00 NR -29.6000 59.9000 reunion main 1012 1012 _____O________ -1 -29.6000 59.9000 99 9.90000 19 130
1848061S12075 1848 6 SI MM NOT_NAMED 1848-03-06 09:00:00 NR -30.2152 60.7871 main 1111 1111 _____P________ -1 -30.2152 60.7871 99 20 127
1848061S12075 1848 6 SI MM NOT_NAMED 1848-03-06 12:00:00 NR -30.8374 61.7794 main 1217 1217 _____P________ -1 -30.8374 61.7794 99 22 125
1848061S12075 1848 6 SI MM NOT_NAMED 1848-03-06 15:00:00 NR -31.4626 62.8664 main 1333 1333 _____P________ -1 -31.4626 62.8664 99 23 123
1848061S12075 1848 6 SI MM NOT_NAMED 1848-03-06 18:00:00 NR -32.0870 64.0369 main 1438 1438 _____P________ -1 -32.0870 64.0369 99 24 121
1848061S12075 1848 6 SI MM NOT_NAMED 1848-03-06 21:00:00 NR -32.7064 65.2788 main 1556 1556 _____P________ -1 -32.7064 65.2788 99 25 120
1848061S12075 1848 6 SI MM NOT_NAMED 1848-03-07 00:00:00 NR -33.3172 66.5793 main 1677 1660 _____P________ -1 -33.3172 66.5793 99 25 119
1848061S12075 1848 6 SI MM NOT_NAMED 1848-03-07 03:00:00 NR -33.9161 67.9245 main 1659 1590 _____P________ -1 -33.9161 67.9245 99 25 118
1848061S12075 1848 6 SI MM NOT_NAMED 1848-03-07 06:00:00 NR -34.5000 69.3000 reunion main 1590 _____O________ -1 -34.5000 69.3000 99 9.90000 26 117

About IBTrACS Database

This database is a web-friendly format of International Best Track Archive for Climate Stewardship (IBTrACS), a global best track data archive curated by NOAA dating back to 1842.

Updated: 2021-11-26